createdAt,value
2023-10-09T00:00:41.500Z,79.42
2023-10-09T00:05:45.575Z,77.81
2023-10-09T00:10:50.376Z,79.57
2023-10-09T00:15:54.982Z,79.22
2023-10-09T00:21:13.250Z,78.61
2023-10-09T00:26:17.737Z,79.13
2023-10-09T00:31:31.094Z,79.11
2023-10-09T00:36:33.973Z,79.67
2023-10-09T00:41:36.592Z,80.03
2023-10-09T00:46:43.243Z,80.40
2023-10-09T00:51:57.685Z,80.18
2023-10-09T00:57:07.808Z,80.79
2023-10-09T01:02:10.938Z,80.46
2023-10-09T01:07:22.484Z,80.57
2023-10-09T01:12:23.944Z,80.43
2023-10-09T01:17:37.392Z,80.23
2023-10-09T01:22:39.419Z,80.20
2023-10-09T01:27:41.485Z,81.44
2023-10-09T01:32:46.554Z,81.36
2023-10-09T01:37:52.656Z,80.99
2023-10-09T01:42:54.194Z,81.17
2023-10-09T01:47:55.907Z,80.96
2023-10-09T01:52:58.063Z,81.26
2023-10-09T01:58:02.892Z,81.69
2023-10-09T02:03:07.059Z,81.46
2023-10-09T02:08:14.049Z,81.17
2023-10-09T02:13:18.161Z,80.47
2023-10-09T02:18:24.185Z,80.02
2023-10-09T02:23:31.479Z,80.37
2023-10-09T02:28:36.153Z,81.08
2023-10-09T02:33:40.335Z,81.14
2023-10-09T02:38:42.784Z,80.72
2023-10-09T02:43:48.498Z,81.31
2023-10-09T02:48:53.992Z,81.23
2023-10-09T02:54:00.737Z,81.04
2023-10-09T02:59:08.040Z,82.75
2023-10-09T03:04:12.141Z,83.90
2023-10-09T03:09:20.678Z,82.95
2023-10-09T03:14:27.602Z,81.76
2023-10-09T03:19:30.900Z,81.67
2023-10-09T03:24:32.887Z,83.57
2023-10-09T03:29:34.742Z,84.45
2023-10-09T03:34:36.267Z,84.91
2023-10-09T03:39:43.461Z,84.44
2023-10-09T03:44:50.170Z,84.75
2023-10-09T03:49:55.721Z,86.08
2023-10-09T03:54:57.433Z,88.03
2023-10-09T03:59:58.962Z,87.96
2023-10-09T04:05:00.795Z,90.57
2023-10-09T04:10:25.254Z,91.60
2023-10-09T04:15:26.971Z,92.90
2023-10-09T04:20:34.308Z,93.88
2023-10-09T04:25:46.567Z,95.88
2023-10-09T04:30:54.688Z,96.76
2023-10-09T04:36:21.723Z,97.41
2023-10-09T04:41:28.821Z,95.96
2023-10-09T04:46:44.722Z,95.08
2023-10-09T04:52:02.326Z,93.67
2023-10-09T04:57:04.167Z,94.02
2023-10-09T05:02:06.943Z,94.61
2023-10-09T05:07:46.901Z,94.11
2023-10-09T05:12:48.876Z,93.88
2023-10-09T05:17:57.553Z,93.70
2023-10-09T05:22:59.523Z,93.63
2023-10-09T05:28:21.016Z,93.58
2023-10-09T05:33:34.605Z,95.34
2023-10-09T05:38:36.939Z,96.60
2023-10-09T05:43:57.112Z,96.62
2023-10-09T05:49:10.247Z,96.82
2023-10-09T05:54:30.688Z,96.13
2023-10-09T05:59:51.238Z,97.56
2023-10-09T06:04:55.924Z,96.73
2023-10-09T06:09:58.822Z,96.04
2023-10-09T06:15:27.038Z,96.69
2023-10-09T06:21:03.479Z,95.40
2023-10-09T06:26:24.740Z,95.27
2023-10-09T06:31:53.321Z,95.06
2023-10-09T06:36:55.628Z,94.86
2023-10-09T06:42:10.573Z,95.26
2023-10-09T06:47:14.157Z,94.45
2023-10-09T06:52:16.770Z,96.45
2023-10-09T06:57:38.816Z,95.92
2023-10-09T07:02:47.326Z,96.47
2023-10-09T07:07:56.202Z,96.86
2023-10-09T07:12:58.355Z,96.90
2023-10-09T07:18:19.828Z,96.58
2023-10-09T07:23:22.736Z,97.11
2023-10-09T07:28:31.037Z,96.62
2023-10-09T07:33:53.411Z,96.57
2023-10-09T07:38:56.313Z,97.01
2023-10-09T07:43:58.599Z,98.01
2023-10-09T07:49:10.592Z,99.36
2023-10-09T07:54:15.823Z,97.74
2023-10-09T07:59:19.719Z,96.91
2023-10-09T08:04:44.810Z,97.61
2023-10-09T08:09:49.644Z,97.45
2023-10-09T08:14:51.141Z,97.61
2023-10-09T08:19:55.750Z,96.95
2023-10-09T08:24:58.436Z,97.39
2023-10-09T08:30:18.906Z,99.36
2023-10-09T08:35:30.801Z,94.66
2023-10-09T08:40:40.325Z,94.32
2023-10-09T08:45:46.877Z,95.23
2023-10-09T08:50:55.363Z,95.31
2023-10-09T08:55:56.942Z,95.11
2023-10-09T09:00:59.932Z,94.67
2023-10-09T09:06:03.072Z,95.40
2023-10-09T09:11:29.145Z,94.66
2023-10-09T09:16:31.970Z,95.06
2023-10-09T09:21:41.901Z,94.17
2023-10-09T09:26:47.410Z,95.92
2023-10-09T09:32:07.570Z,95.46
2023-10-09T09:37:14.973Z,94.31
2023-10-09T09:42:18.582Z,94.28
2023-10-09T09:47:28.370Z,93.20
2023-10-09T09:52:39.348Z,96.00
2023-10-09T09:57:42.323Z,95.26
2023-10-09T10:02:46.445Z,95.46
2023-10-09T10:07:50.602Z,97.17
2023-10-09T10:13:02.431Z,94.63
2023-10-09T10:18:08.462Z,94.54
2023-10-09T10:23:18.763Z,93.54
2023-10-09T10:28:54.027Z,95.07
2023-10-09T10:33:59.591Z,95.51
2023-10-09T10:39:05.747Z,95.05
2023-10-09T10:44:25.588Z,93.65
2023-10-09T10:49:37.627Z,93.56
2023-10-09T10:54:39.179Z,94.07
2023-10-09T10:59:42.813Z,94.65
2023-10-09T11:04:54.929Z,93.36
2023-10-09T11:10:10.468Z,93.01
2023-10-09T11:15:23.460Z,92.99
2023-10-09T11:20:33.316Z,94.36
2023-10-09T11:25:35.061Z,92.16
2023-10-09T11:30:37.271Z,91.28
2023-10-09T11:35:38.859Z,91.64
2023-10-09T11:41:05.156Z,92.99
2023-10-09T11:46:30.788Z,92.29
2023-10-09T11:51:32.363Z,91.54
2023-10-09T11:56:34.070Z,91.21
2023-10-09T12:01:38.394Z,90.97
2023-10-09T12:06:40.363Z,90.75
2023-10-09T12:11:54.056Z,90.94
2023-10-09T12:17:06.625Z,91.26
2023-10-09T12:22:12.067Z,90.90
2023-10-09T12:27:13.802Z,88.96
2023-10-09T12:32:20.548Z,89.84
2023-10-09T12:37:22.358Z,87.77
2023-10-09T12:42:23.973Z,88.77
2023-10-09T12:47:26.339Z,89.09
2023-10-09T12:52:31.102Z,88.00
2023-10-09T12:57:32.779Z,87.99
2023-10-09T13:02:35.041Z,88.08
2023-10-09T13:07:36.737Z,87.84
2023-10-09T13:12:44.294Z,87.41
2023-10-09T13:17:45.891Z,87.19
2023-10-09T13:22:50.967Z,87.85
2023-10-09T13:27:52.471Z,88.46
2023-10-09T13:32:54.040Z,87.71
2023-10-09T13:37:55.591Z,88.52
2023-10-09T13:42:59.799Z,88.14
2023-10-09T13:48:04.249Z,87.85
2023-10-09T13:53:13.815Z,88.03
2023-10-09T13:58:21.905Z,88.78
2023-10-09T14:03:25.709Z,88.41
2023-10-09T14:08:30.065Z,88.46
2023-10-09T14:13:31.585Z,88.08
2023-10-09T14:18:33.026Z,87.51
2023-10-09T14:23:35.769Z,88.20
2023-10-09T14:28:38.561Z,87.36
2023-10-09T14:33:41.632Z,87.18
2023-10-09T14:38:43.505Z,86.63
2023-10-09T14:43:45.073Z,86.87
2023-10-09T14:48:47.366Z,87.46
2023-10-09T14:53:50.537Z,87.26
2023-10-09T14:58:52.527Z,86.76
2023-10-09T15:03:56.359Z,86.50
2023-10-09T15:09:09.121Z,87.14
2023-10-09T15:14:10.626Z,85.96
2023-10-09T15:19:12.117Z,85.87
2023-10-09T15:24:20.472Z,86.67
2023-10-09T15:29:29.127Z,87.13
2023-10-09T15:34:32.287Z,85.69
2023-10-09T15:39:33.942Z,85.59
2023-10-09T15:44:38.254Z,84.62
2023-10-09T15:49:45.154Z,85.01
2023-10-09T15:54:49.128Z,84.97
2023-10-09T15:59:51.647Z,85.26
2023-10-09T16:04:54.240Z,84.91
2023-10-09T16:09:56.586Z,84.90
2023-10-09T16:14:58.150Z,84.96
2023-10-09T16:20:01.001Z,86.13
2023-10-09T16:25:10.392Z,86.21
2023-10-09T16:30:14.199Z,87.07
2023-10-09T16:35:15.837Z,86.61
2023-10-09T16:40:21.270Z,87.52
2023-10-09T16:45:22.970Z,87.08
2023-10-09T16:50:29.602Z,87.21
2023-10-09T16:55:31.641Z,87.53
2023-10-09T17:00:36.315Z,87.21
2023-10-09T17:05:52.858Z,86.87
2023-10-09T17:10:54.385Z,86.80
2023-10-09T17:15:56.414Z,86.82
2023-10-09T17:21:00.695Z,87.15
2023-10-09T17:26:05.318Z,87.10
2023-10-09T17:31:06.929Z,86.63
2023-10-09T17:36:08.455Z,87.04
2023-10-09T17:41:10.197Z,86.52
2023-10-09T17:46:13.090Z,87.05
2023-10-09T17:51:15.969Z,87.27
2023-10-09T17:56:19.705Z,87.63
2023-10-09T18:01:25.906Z,88.26
2023-10-09T18:06:27.734Z,88.83
2023-10-09T18:11:29.650Z,88.24
2023-10-09T18:16:31.160Z,87.79
2023-10-09T18:21:36.958Z,88.75
2023-10-09T18:26:38.445Z,88.34
2023-10-09T18:31:41.971Z,88.98
2023-10-09T18:36:43.489Z,89.60
2023-10-09T18:41:45.762Z,89.31
2023-10-09T18:46:48.397Z,89.57
2023-10-09T18:51:49.975Z,90.15
2023-10-09T18:56:51.631Z,90.19
2023-10-09T19:01:54.170Z,89.73
2023-10-09T19:06:55.661Z,89.65
2023-10-09T19:11:58.506Z,89.30
2023-10-09T19:17:01.402Z,89.42
2023-10-09T19:22:03.257Z,89.33
2023-10-09T19:27:06.033Z,89.83
2023-10-09T19:32:08.947Z,90.55
2023-10-09T19:37:10.465Z,90.18
2023-10-09T19:42:13.040Z,90.78
2023-10-09T19:47:14.513Z,90.74
2023-10-09T19:52:16.004Z,90.44
2023-10-09T19:57:18.564Z,89.71
2023-10-09T20:02:20.427Z,90.01
2023-10-09T20:07:22.068Z,90.60
2023-10-09T20:12:24.179Z,90.49
2023-10-09T20:17:25.661Z,90.11
2023-10-09T20:22:28.639Z,90.11
2023-10-09T20:27:31.619Z,90.63
2023-10-09T20:32:33.157Z,90.94
2023-10-09T20:37:35.422Z,90.12
2023-10-09T20:42:37.416Z,90.39
2023-10-09T20:47:43.971Z,90.77
2023-10-09T20:52:47.051Z,90.96
2023-10-09T20:57:58.053Z,91.87
2023-10-09T21:03:00.290Z,90.71
2023-10-09T21:08:02.175Z,91.42
2023-10-09T21:13:03.959Z,92.00
2023-10-09T21:18:07.213Z,91.76
2023-10-09T21:23:10.819Z,91.72
2023-10-09T21:28:12.437Z,91.82
2023-10-09T21:33:13.939Z,92.25
2023-10-09T21:38:15.891Z,92.45
2023-10-09T21:43:19.161Z,92.38
2023-10-09T21:48:20.715Z,92.07
2023-10-09T21:53:23.657Z,92.53
2023-10-09T21:58:25.603Z,92.17
2023-10-09T22:03:28.445Z,92.53
2023-10-09T22:08:30.188Z,92.42
2023-10-09T22:13:31.628Z,92.46
2023-10-09T22:18:33.546Z,92.20
2023-10-09T22:23:36.673Z,91.43
2023-10-09T22:28:41.852Z,91.60
2023-10-09T22:33:47.223Z,91.72
2023-10-09T22:38:58.436Z,91.18
2023-10-09T22:44:00.689Z,92.48
2023-10-09T22:49:14.592Z,92.48
2023-10-09T22:54:24.124Z,92.27
2023-10-09T22:59:28.181Z,92.05
2023-10-09T23:04:37.833Z,91.81
2023-10-09T23:09:49.306Z,92.78
2023-10-09T23:14:52.199Z,92.31
2023-10-09T23:19:57.240Z,92.90
2023-10-09T23:25:18.909Z,92.82
2023-10-09T23:30:23.810Z,92.83
2023-10-09T23:35:45.037Z,93.17
2023-10-09T23:40:47.122Z,93.02
2023-10-09T23:45:58.120Z,93.10
2023-10-09T23:51:02.309Z,95.06
2023-10-09T23:56:12.139Z,93.39
